createdAt,value
2019-03-24T00:01:41.692Z,16.13
2019-03-24T00:04:13.844Z,15.90
2019-03-24T00:06:46.097Z,16.70
2019-03-24T00:09:18.231Z,16.47
2019-03-24T00:11:50.702Z,16.77
2019-03-24T00:14:23.189Z,16.53
2019-03-24T00:16:55.445Z,16.23
2019-03-24T00:19:27.753Z,15.37
2019-03-24T00:22:00.096Z,17.07
2019-03-24T00:24:32.545Z,17.37
2019-03-24T00:27:05.373Z,16.80
2019-03-24T00:29:37.490Z,17.50
2019-03-24T00:32:09.731Z,16.83
2019-03-24T00:34:41.816Z,16.50
2019-03-24T00:37:14.021Z,16.83
2019-03-24T00:39:46.181Z,16.70
2019-03-24T00:42:18.776Z,17.13
2019-03-24T00:44:51.831Z,18.07
2019-03-24T00:47:24.021Z,17.13
2019-03-24T00:49:56.006Z,17.03
2019-03-24T00:52:28.154Z,17.20
2019-03-24T00:55:00.437Z,16.77
2019-03-24T00:57:32.521Z,15.47
2019-03-24T01:00:07.236Z,15.43
2019-03-24T01:02:40.479Z,15.97
2019-03-24T01:05:12.901Z,15.33
2019-03-24T01:07:45.133Z,15.83
2019-03-24T01:10:17.387Z,15.43
2019-03-24T01:12:49.510Z,15.27
2019-03-24T01:15:21.774Z,15.43
2019-03-24T01:17:54.010Z,15.03
2019-03-24T01:20:26.302Z,16.23
2019-03-24T01:22:58.451Z,17.57
2019-03-24T01:25:30.634Z,16.07
2019-03-24T01:28:02.775Z,16.00
2019-03-24T01:30:35.045Z,15.70
2019-03-24T01:33:07.607Z,17.10
2019-03-24T01:35:39.753Z,16.20
2019-03-24T01:38:12.348Z,16.73
2019-03-24T01:40:44.557Z,15.73
2019-03-24T01:43:16.696Z,15.63
2019-03-24T01:45:58.193Z,16.00
2019-03-24T01:48:22.766Z,16.07
2019-03-24T01:50:54.954Z,17.90
2019-03-24T01:53:27.148Z,17.43
2019-03-24T01:55:59.689Z,17.80
2019-03-24T01:58:32.027Z,16.20
2019-03-24T02:01:04.695Z,18.23
2019-03-24T02:03:37.173Z,17.83
2019-03-24T02:06:09.452Z,16.03
2019-03-24T02:08:41.859Z,17.77
2019-03-24T02:11:14.010Z,18.30
2019-03-24T02:13:46.189Z,17.43
2019-03-24T02:16:18.421Z,19.00
2019-03-24T02:18:51.188Z,17.70
2019-03-24T02:21:23.993Z,18.33
2019-03-24T02:23:56.209Z,17.97
2019-03-24T02:26:28.423Z,18.33
2019-03-24T02:29:00.552Z,18.07
2019-03-24T02:31:33.024Z,19.83
2019-03-24T02:34:05.151Z,18.60
2019-03-24T02:36:37.302Z,19.43
2019-03-24T02:39:09.875Z,20.90
2019-03-24T02:41:42.099Z,20.43
2019-03-24T02:44:14.338Z,19.97
2019-03-24T02:46:46.598Z,19.53
2019-03-24T02:49:18.738Z,19.20
2019-03-24T02:51:50.888Z,19.10
2019-03-24T02:54:23.024Z,19.93
2019-03-24T02:56:55.271Z,19.33
2019-03-24T02:59:28.455Z,19.83
2019-03-24T03:02:00.524Z,21.03
2019-03-24T03:04:32.868Z,20.87
2019-03-24T03:07:05.359Z,20.50
2019-03-24T03:09:37.860Z,20.47
2019-03-24T03:12:10.303Z,20.80
2019-03-24T03:14:42.527Z,21.60
2019-03-24T03:17:14.617Z,21.37
2019-03-24T03:19:46.782Z,21.13
2019-03-24T03:22:19.282Z,21.07
2019-03-24T03:24:51.461Z,21.50
2019-03-24T03:27:23.555Z,21.50
2019-03-24T03:29:55.674Z,20.40
2019-03-24T03:32:28.000Z,20.40
2019-03-24T03:35:00.873Z,21.87
2019-03-24T03:37:34.457Z,23.13
2019-03-24T03:40:08.110Z,23.03
2019-03-24T03:42:41.661Z,22.53
2019-03-24T03:45:15.804Z,20.43
2019-03-24T03:47:47.957Z,21.30
2019-03-24T03:50:20.420Z,21.50
2019-03-24T03:52:52.484Z,22.63
2019-03-24T03:55:24.836Z,21.67
2019-03-24T03:57:57.600Z,21.63
2019-03-24T04:00:39.698Z,22.40
2019-03-24T04:03:12.001Z,21.53
2019-03-24T04:05:44.262Z,22.50
2019-03-24T04:08:16.815Z,23.23
2019-03-24T04:10:48.971Z,23.10
2019-03-24T04:13:21.219Z,28.43
2019-03-24T04:15:54.036Z,27.90
2019-03-24T04:18:26.365Z,28.23
2019-03-24T04:20:58.884Z,25.63
2019-03-24T04:23:31.203Z,26.27
2019-03-24T04:26:03.538Z,24.67
2019-03-24T04:28:35.695Z,25.47
2019-03-24T04:31:08.309Z,29.13
2019-03-24T04:33:40.459Z,28.97
2019-03-24T04:36:12.942Z,25.93
2019-03-24T04:38:45.906Z,27.67
2019-03-24T04:41:18.080Z,25.63
2019-03-24T04:43:50.517Z,27.90
2019-03-24T04:46:22.783Z,28.63
2019-03-24T04:48:54.941Z,30.23
2019-03-24T04:51:27.158Z,27.67
2019-03-24T04:54:00.352Z,28.87
2019-03-24T04:56:32.570Z,28.60
2019-03-24T04:59:04.753Z,29.37
2019-03-24T05:01:36.963Z,28.90
2019-03-24T05:04:09.510Z,29.97
2019-03-24T05:06:42.910Z,30.50
2019-03-24T05:09:16.861Z,29.67
2019-03-24T05:11:49.127Z,28.93
2019-03-24T05:14:21.287Z,29.73
2019-03-24T05:16:54.271Z,30.40
2019-03-24T05:19:27.117Z,29.80
2019-03-24T05:21:59.994Z,32.53
2019-03-24T05:24:32.613Z,31.93
2019-03-24T05:27:05.243Z,33.27
2019-03-24T05:29:37.494Z,29.90
2019-03-24T05:32:09.731Z,30.00
2019-03-24T05:34:41.985Z,31.23
2019-03-24T05:37:14.239Z,31.87
2019-03-24T05:39:46.421Z,31.50
2019-03-24T05:42:18.506Z,32.40
2019-03-24T05:44:50.659Z,31.83
2019-03-24T05:47:23.190Z,33.17
2019-03-24T05:49:55.456Z,33.57
2019-03-24T05:52:27.772Z,32.67
2019-03-24T05:54:59.793Z,33.97
2019-03-24T05:57:31.962Z,33.73
2019-03-24T06:00:04.614Z,36.03
2019-03-24T06:02:36.766Z,37.37
2019-03-24T06:05:09.194Z,36.43
2019-03-24T06:07:41.868Z,37.73
2019-03-24T06:10:14.236Z,39.37
2019-03-24T06:12:48.290Z,37.23
2019-03-24T06:15:20.821Z,36.07
2019-03-24T06:17:53.013Z,39.10
2019-03-24T06:20:25.592Z,37.40
2019-03-24T06:22:57.874Z,37.60
2019-03-24T06:25:30.034Z,37.53
2019-03-24T06:28:02.630Z,36.60
2019-03-24T06:30:34.899Z,37.67
2019-03-24T06:33:07.171Z,39.17
2019-03-24T06:35:39.429Z,40.00
2019-03-24T06:38:12.091Z,41.63
2019-03-24T06:40:44.573Z,40.67
2019-03-24T06:43:16.812Z,41.97
2019-03-24T06:45:49.227Z,39.83
2019-03-24T06:48:21.519Z,39.13
2019-03-24T06:50:53.863Z,38.60
2019-03-24T06:53:26.496Z,39.90
2019-03-24T06:55:58.697Z,41.70
2019-03-24T06:58:30.864Z,42.17
2019-03-24T07:01:03.246Z,43.63
2019-03-24T07:03:35.399Z,44.37
2019-03-24T07:06:07.917Z,43.10
2019-03-24T07:08:40.148Z,45.57
2019-03-24T07:11:13.920Z,43.97
2019-03-24T07:13:46.114Z,44.17
2019-03-24T07:16:18.632Z,45.83
2019-03-24T07:18:51.782Z,46.03
2019-03-24T07:21:24.031Z,45.13
2019-03-24T07:23:56.199Z,42.83
2019-03-24T07:26:28.774Z,43.67
2019-03-24T07:29:01.079Z,41.87
2019-03-24T07:31:33.243Z,41.03
2019-03-24T07:34:05.906Z,43.37
2019-03-24T07:36:38.071Z,42.13
2019-03-24T07:39:10.519Z,42.83
2019-03-24T07:41:42.800Z,43.17
2019-03-24T07:44:14.912Z,45.57
2019-03-24T07:46:47.034Z,45.13
2019-03-24T07:49:19.527Z,43.33
2019-03-24T07:51:51.762Z,40.73
2019-03-24T07:54:24.332Z,44.40
2019-03-24T07:56:56.876Z,43.10
2019-03-24T07:59:28.977Z,44.47
2019-03-24T08:02:01.239Z,45.73
2019-03-24T08:04:33.653Z,43.00
2019-03-24T08:07:05.835Z,44.47
2019-03-24T08:09:38.253Z,44.67
2019-03-24T08:12:10.467Z,44.43
2019-03-24T08:14:42.857Z,44.13
2019-03-24T08:17:14.976Z,44.17
2019-03-24T08:19:47.363Z,42.00
2019-03-24T08:22:19.843Z,43.63
2019-03-24T08:24:52.220Z,42.73
2019-03-24T08:27:24.533Z,44.37
2019-03-24T08:29:57.168Z,41.97
2019-03-24T08:32:30.541Z,44.97
2019-03-24T08:35:03.043Z,42.63
2019-03-24T08:37:35.343Z,43.03
2019-03-24T08:40:07.979Z,43.67
2019-03-24T08:42:40.979Z,43.53
2019-03-24T08:45:23.142Z,44.30
2019-03-24T08:47:55.995Z,43.10
2019-03-24T08:50:29.551Z,42.10
2019-03-24T08:53:02.126Z,44.53
2019-03-24T08:55:34.567Z,45.53
2019-03-24T08:58:07.840Z,43.33
2019-03-24T09:00:40.238Z,42.93
2019-03-24T09:03:12.821Z,43.97
2019-03-24T09:05:45.314Z,44.63
2019-03-24T09:08:18.631Z,43.63
2019-03-24T09:10:50.981Z,43.87
2019-03-24T09:13:23.166Z,43.37
2019-03-24T09:15:55.402Z,42.63
2019-03-24T09:18:28.031Z,43.50
2019-03-24T09:21:00.269Z,42.13
2019-03-24T09:23:32.545Z,41.13
2019-03-24T09:26:05.028Z,42.13
2019-03-24T09:28:37.477Z,42.37
2019-03-24T09:31:11.123Z,41.87
2019-03-24T09:33:43.317Z,41.07
2019-03-24T09:36:15.552Z,41.80
2019-03-24T09:38:48.161Z,42.73
2019-03-24T09:41:20.326Z,42.20
2019-03-24T09:43:52.524Z,43.50
2019-03-24T09:46:24.713Z,42.97
2019-03-24T09:49:03.018Z,39.87
2019-03-24T09:51:31.251Z,40.73
2019-03-24T09:54:03.936Z,41.67
2019-03-24T09:56:36.199Z,41.00
2019-03-24T09:59:08.402Z,40.27
2019-03-24T10:01:40.948Z,41.47
2019-03-24T10:04:13.167Z,40.00
2019-03-24T10:06:45.353Z,40.57
2019-03-24T10:09:17.941Z,40.80
2019-03-24T10:11:50.139Z,40.43
2019-03-24T10:14:22.284Z,39.07
2019-03-24T10:16:55.747Z,41.00
2019-03-24T10:19:28.111Z,40.17
2019-03-24T10:22:00.876Z,39.53
2019-03-24T10:24:34.135Z,38.95
2019-03-24T10:27:06.750Z,38.02
2019-03-24T10:29:38.843Z,40.30
2019-03-24T10:32:11.463Z,39.00
2019-03-24T10:34:44.435Z,39.20
2019-03-24T10:37:16.694Z,38.80
2019-03-24T10:39:48.803Z,39.73
2019-03-24T10:42:22.441Z,40.25
2019-03-24T10:44:54.768Z,39.45
2019-03-24T10:47:26.991Z,37.20
2019-03-24T10:49:59.653Z,38.30
2019-03-24T10:52:31.945Z,40.65
2019-03-24T10:55:04.403Z,38.73
2019-03-24T10:57:36.636Z,38.75
2019-03-24T11:00:10.941Z,39.23
2019-03-24T11:02:43.243Z,38.83
2019-03-24T11:05:15.544Z,38.70
2019-03-24T11:07:48.166Z,36.55
2019-03-24T11:10:20.438Z,38.83
2019-03-24T11:12:52.997Z,36.90
2019-03-24T11:15:25.166Z,37.15
2019-03-24T11:17:57.722Z,36.40
2019-03-24T11:20:29.901Z,35.63
2019-03-24T11:23:02.149Z,38.73
2019-03-24T11:25:34.419Z,39.80
2019-03-24T11:28:07.769Z,35.13
2019-03-24T11:30:40.026Z,36.42
2019-03-24T11:33:12.869Z,36.73
2019-03-24T11:35:45.298Z,34.98
2019-03-24T11:38:17.517Z,36.88
2019-03-24T11:40:49.967Z,36.17
2019-03-24T11:43:22.144Z,34.75
2019-03-24T11:45:54.561Z,34.85
2019-03-24T11:48:27.076Z,37.15
2019-03-24T11:50:59.272Z,35.78
2019-03-24T11:53:31.851Z,35.92
2019-03-24T11:56:04.539Z,34.67
2019-03-24T11:58:36.836Z,34.70
2019-03-24T12:01:09.157Z,35.90
2019-03-24T12:03:41.427Z,35.60
2019-03-24T12:06:14.952Z,36.05
2019-03-24T12:08:48.031Z,36.30
2019-03-24T12:11:20.792Z,35.10
2019-03-24T12:13:52.992Z,34.77
2019-03-24T12:16:25.250Z,35.13
2019-03-24T12:18:57.820Z,34.03
2019-03-24T12:21:29.922Z,34.88
2019-03-24T12:24:02.146Z,35.52
2019-03-24T12:26:34.635Z,35.17
2019-03-24T12:29:07.151Z,33.63
2019-03-24T12:31:39.708Z,35.03
2019-03-24T12:34:11.933Z,35.00
2019-03-24T12:36:44.126Z,34.18
2019-03-24T12:39:16.439Z,32.00
2019-03-24T12:41:48.980Z,30.88
2019-03-24T12:44:21.156Z,29.73
2019-03-24T12:46:53.898Z,31.42
2019-03-24T12:49:26.007Z,32.08
2019-03-24T12:51:58.232Z,30.12
2019-03-24T12:54:30.430Z,29.50
2019-03-24T12:57:02.798Z,26.93
2019-03-24T12:59:35.077Z,26.50
2019-03-24T13:02:07.362Z,29.00
2019-03-24T13:04:39.754Z,26.48
2019-03-24T13:07:11.899Z,25.97
2019-03-24T13:09:44.211Z,26.02
2019-03-24T13:12:17.616Z,25.90
2019-03-24T13:14:50.064Z,27.45
2019-03-24T13:17:22.676Z,27.42
2019-03-24T13:19:54.891Z,26.42
2019-03-24T13:22:27.155Z,28.02
2019-03-24T13:25:00.554Z,27.25
2019-03-24T13:27:32.919Z,27.67
2019-03-24T13:30:05.952Z,28.75
2019-03-24T13:32:39.106Z,29.02
2019-03-24T13:35:11.375Z,28.40
2019-03-24T13:37:44.781Z,29.00
2019-03-24T13:40:17.079Z,29.37
2019-03-24T13:42:49.331Z,28.17
2019-03-24T13:45:21.894Z,28.57
2019-03-24T13:47:54.647Z,28.52
2019-03-24T13:50:31.601Z,29.12
2019-03-24T13:53:01.228Z,28.35
2019-03-24T13:55:33.698Z,28.12
2019-03-24T13:58:06.208Z,27.42
2019-03-24T14:00:38.479Z,26.60
2019-03-24T14:03:10.916Z,28.50
2019-03-24T14:05:43.178Z,27.55
2019-03-24T14:08:15.367Z,27.40
2019-03-24T14:10:47.752Z,29.40
2019-03-24T14:13:20.022Z,29.70
2019-03-24T14:15:52.325Z,29.72
2019-03-24T14:18:24.571Z,29.65
2019-03-24T14:20:57.749Z,29.27
2019-03-24T14:23:30.112Z,28.80
2019-03-24T14:26:02.294Z,28.60
2019-03-24T14:28:34.574Z,29.13
2019-03-24T14:31:06.856Z,30.12
2019-03-24T14:33:39.389Z,29.10
2019-03-24T14:36:11.968Z,30.12
2019-03-24T14:38:44.573Z,30.47
2019-03-24T14:41:17.551Z,30.57
2019-03-24T14:43:49.808Z,29.77
2019-03-24T14:46:22.503Z,30.00
2019-03-24T14:48:55.062Z,28.98
2019-03-24T14:51:27.720Z,30.43
2019-03-24T14:54:00.457Z,29.90
2019-03-24T14:56:34.086Z,30.70
2019-03-24T14:59:06.830Z,32.23
2019-03-24T15:01:39.180Z,33.15
2019-03-24T15:04:11.345Z,33.77
2019-03-24T15:06:44.049Z,32.87
2019-03-24T15:09:16.501Z,32.10
2019-03-24T15:11:48.826Z,31.13
2019-03-24T15:14:21.390Z,32.07
2019-03-24T15:16:53.600Z,32.77
2019-03-24T15:19:25.874Z,33.27
2019-03-24T15:21:59.190Z,32.13
2019-03-24T15:24:31.471Z,32.07
2019-03-24T15:27:04.093Z,32.10
2019-03-24T15:29:36.278Z,31.13
2019-03-24T15:32:08.635Z,30.67
2019-03-24T15:34:41.013Z,31.80
2019-03-24T15:37:13.122Z,32.13
2019-03-24T15:39:45.395Z,30.77
2019-03-24T15:42:17.586Z,33.10
2019-03-24T15:44:49.896Z,35.07
2019-03-24T15:47:22.535Z,33.30
2019-03-24T15:49:55.248Z,32.30
2019-03-24T15:52:27.824Z,32.63
2019-03-24T15:55:00.414Z,32.07
2019-03-24T15:57:32.997Z,31.53
2019-03-24T16:00:07.293Z,33.20
2019-03-24T16:02:39.768Z,32.87
2019-03-24T16:05:11.974Z,31.73
2019-03-24T16:07:44.346Z,34.77
2019-03-24T16:10:16.621Z,34.70
2019-03-24T16:12:49.272Z,38.00
2019-03-24T16:15:21.561Z,37.33
2019-03-24T16:17:54.178Z,36.20
2019-03-24T16:20:26.442Z,38.77
2019-03-24T16:22:58.714Z,37.90
2019-03-24T16:25:31.493Z,38.90
2019-03-24T16:28:03.870Z,39.37
2019-03-24T16:30:36.161Z,38.77
2019-03-24T16:33:09.014Z,38.57
2019-03-24T16:35:42.584Z,38.33
2019-03-24T16:38:14.774Z,39.50
2019-03-24T16:40:47.033Z,39.40
2019-03-24T16:43:19.651Z,37.47
2019-03-24T16:45:51.978Z,38.03
2019-03-24T16:48:24.710Z,37.97
2019-03-24T16:50:56.999Z,38.43
2019-03-24T16:53:29.683Z,37.93
2019-03-24T16:56:01.861Z,38.13
2019-03-24T16:58:34.043Z,38.90
2019-03-24T17:01:06.314Z,38.07
2019-03-24T17:03:38.660Z,37.17
2019-03-24T17:06:10.961Z,38.20
2019-03-24T17:08:43.168Z,38.60
2019-03-24T17:11:16.022Z,38.37
2019-03-24T17:13:48.605Z,39.30
2019-03-24T17:16:21.735Z,39.10
2019-03-24T17:18:54.022Z,38.97
2019-03-24T17:21:26.124Z,40.00
2019-03-24T17:23:58.659Z,38.50
2019-03-24T17:26:30.984Z,38.27
2019-03-24T17:29:03.214Z,39.20
2019-03-24T17:31:35.540Z,38.17
2019-03-24T17:34:08.087Z,38.90
2019-03-24T17:36:40.208Z,38.47
2019-03-24T17:39:13.620Z,38.63
2019-03-24T17:41:45.832Z,38.47
2019-03-24T17:44:18.117Z,38.57
2019-03-24T17:46:50.729Z,38.83
2019-03-24T17:49:24.326Z,38.97
2019-03-24T17:52:00.884Z,39.93
2019-03-24T17:54:32.097Z,38.17
2019-03-24T17:57:05.349Z,40.13
2019-03-24T17:59:38.850Z,40.37
2019-03-24T18:02:14.597Z,42.47
2019-03-24T18:04:45.078Z,43.67
2019-03-24T18:07:17.197Z,40.83
2019-03-24T18:09:49.462Z,42.47
2019-03-24T18:12:21.828Z,43.87
2019-03-24T18:14:54.163Z,41.37
2019-03-24T18:17:26.676Z,39.23
2019-03-24T18:19:58.967Z,40.07
2019-03-24T18:22:31.249Z,40.03
2019-03-24T18:25:03.502Z,40.70
2019-03-24T18:27:35.790Z,39.47
2019-03-24T18:30:12.672Z,41.00
2019-03-24T18:32:44.946Z,40.13
2019-03-24T18:35:17.329Z,40.23
2019-03-24T18:37:49.701Z,39.30
2019-03-24T18:40:22.168Z,39.13
2019-03-24T18:42:54.781Z,39.60
2019-03-24T18:45:27.158Z,41.03
2019-03-24T18:47:59.797Z,38.47
2019-03-24T18:50:32.381Z,39.07
2019-03-24T18:53:05.045Z,37.40
2019-03-24T18:55:37.489Z,39.50
2019-03-24T18:58:10.109Z,36.87
2019-03-24T19:00:42.297Z,38.37
2019-03-24T19:03:14.911Z,39.93
2019-03-24T19:05:47.446Z,39.13
2019-03-24T19:08:19.783Z,40.57
2019-03-24T19:10:52.050Z,39.60
2019-03-24T19:13:24.949Z,41.10
2019-03-24T19:15:57.560Z,38.27
2019-03-24T19:18:29.849Z,39.20
2019-03-24T19:21:02.111Z,39.57
2019-03-24T19:23:35.440Z,40.50
2019-03-24T19:26:08.708Z,38.03
2019-03-24T19:28:41.221Z,39.23
2019-03-24T19:31:13.591Z,39.50
2019-03-24T19:33:45.978Z,38.37
2019-03-24T19:36:18.255Z,39.57
2019-03-24T19:38:51.723Z,41.63
2019-03-24T19:41:24.018Z,37.47
2019-03-24T19:43:56.265Z,38.97
2019-03-24T19:46:28.573Z,37.23
2019-03-24T19:49:01.139Z,35.57
2019-03-24T19:51:33.659Z,35.80
2019-03-24T19:54:06.433Z,36.80
2019-03-24T19:56:38.766Z,33.73
2019-03-24T19:59:11.164Z,36.37
2019-03-24T20:01:43.775Z,36.13
2019-03-24T20:04:16.136Z,37.00
2019-03-24T20:06:48.676Z,34.40
2019-03-24T20:09:22.139Z,38.63
2019-03-24T20:11:54.923Z,38.13
2019-03-24T20:14:27.871Z,36.57
2019-03-24T20:17:00.402Z,35.20
2019-03-24T20:19:33.065Z,37.97
2019-03-24T20:22:05.399Z,34.60
2019-03-24T20:24:38.441Z,36.73
2019-03-24T20:27:10.930Z,34.83
2019-03-24T20:29:43.321Z,35.00
2019-03-24T20:32:15.973Z,34.47
2019-03-24T20:34:48.736Z,35.57
2019-03-24T20:37:21.727Z,36.30
2019-03-24T20:39:54.072Z,36.40
2019-03-24T20:42:26.729Z,37.97
2019-03-24T20:44:59.010Z,38.27
2019-03-24T20:47:31.456Z,35.90
2019-03-24T20:50:03.909Z,35.77
2019-03-24T20:52:36.605Z,35.63
2019-03-24T20:55:09.880Z,38.67
2019-03-24T20:57:42.684Z,37.23
2019-03-24T21:00:17.345Z,36.57
2019-03-24T21:02:49.822Z,37.40
2019-03-24T21:05:22.182Z,37.63
2019-03-24T21:07:54.542Z,36.57
2019-03-24T21:10:26.828Z,40.00
2019-03-24T21:12:59.104Z,37.30
2019-03-24T21:15:31.343Z,38.50
2019-03-24T21:18:04.583Z,37.47
2019-03-24T21:20:38.057Z,37.87
2019-03-24T21:23:10.350Z,36.73
2019-03-24T21:25:42.925Z,35.67
2019-03-24T21:28:15.521Z,36.60
2019-03-24T21:30:47.758Z,36.27
2019-03-24T21:33:20.359Z,36.33
2019-03-24T21:35:52.702Z,36.63
2019-03-24T21:38:25.000Z,35.73
2019-03-24T21:40:57.350Z,37.50
2019-03-24T21:43:30.605Z,37.70
2019-03-24T21:46:02.994Z,34.13
2019-03-24T21:48:35.536Z,36.60
2019-03-24T21:51:07.783Z,35.57
2019-03-24T21:53:40.884Z,35.63
2019-03-24T21:56:14.309Z,37.63
2019-03-24T21:58:46.888Z,38.03
2019-03-24T22:01:19.102Z,38.87
2019-03-24T22:03:51.265Z,38.10
2019-03-24T22:06:23.526Z,36.53
2019-03-24T22:08:55.740Z,37.27
2019-03-24T22:11:27.944Z,37.60
2019-03-24T22:14:00.069Z,39.50
2019-03-24T22:16:32.445Z,41.67
2019-03-24T22:19:04.843Z,39.03
2019-03-24T22:21:37.510Z,41.20
2019-03-24T22:24:10.078Z,39.57
2019-03-24T22:26:42.202Z,39.47
2019-03-24T22:29:14.476Z,39.23
2019-03-24T22:31:46.898Z,40.17
2019-03-24T22:34:19.148Z,39.60
2019-03-24T22:36:51.234Z,39.53
2019-03-24T22:39:23.758Z,40.63
2019-03-24T22:41:56.009Z,42.67
2019-03-24T22:44:28.664Z,38.93
2019-03-24T22:47:01.172Z,39.30
2019-03-24T22:49:33.716Z,38.50
2019-03-24T22:52:07.569Z,38.53
2019-03-24T22:54:40.286Z,38.57
2019-03-24T22:57:12.445Z,41.17
2019-03-24T22:59:44.636Z,37.87
2019-03-24T23:02:16.885Z,39.73
2019-03-24T23:04:49.067Z,39.43
2019-03-24T23:07:21.881Z,39.57
2019-03-24T23:09:54.098Z,39.67
2019-03-24T23:12:27.897Z,40.50
2019-03-24T23:15:00.503Z,40.43
2019-03-24T23:17:33.186Z,39.43
2019-03-24T23:20:06.611Z,40.67
2019-03-24T23:22:38.801Z,40.57
2019-03-24T23:25:11.855Z,39.17
2019-03-24T23:27:45.713Z,40.23
2019-03-24T23:30:19.329Z,41.73
2019-03-24T23:32:51.837Z,40.00
2019-03-24T23:35:24.070Z,40.47
2019-03-24T23:37:56.301Z,39.97
2019-03-24T23:40:28.898Z,39.07
2019-03-24T23:43:01.474Z,38.93
2019-03-24T23:45:33.964Z,40.23
2019-03-24T23:48:06.770Z,41.30
2019-03-24T23:50:39.365Z,41.67
2019-03-24T23:53:11.635Z,40.43
2019-03-24T23:55:43.880Z,40.97
2019-03-24T23:58:16.127Z,39.83
